Time;durP1;ratioP1;P1;durP2;ratioP2;P2;SDS_P1;SDS_P2;PMS_P1;PMS_P2;Temp;Humidity;BMP_temperature;BMP_pressure;BME280_temperature;BME280_humidity;BME280_pressure;Samples;Min_cycle;Max_cycle;Signal;HPM_P1;HPM_P2
2021/11/09 00:00:26;;;;;;;16.00;3.30;;;;;;;6.45;100.00;102348.38;5022673;28;20041;-75
2021/11/09 00:02:53;;;;;;;17.13;3.38;;;;;;;6.46;100.00;102358.72;5016149;28;20083;-75
2021/11/09 00:05:23;;;;;;;16.92;3.30;;;;;;;6.46;100.00;102350.91;4998366;28;20380;-74
2021/11/09 00:07:55;;;;;;;23.83;3.55;;;;;;;6.50;100.00;102362.84;5023575;28;20033;-77
2021/11/09 00:10:22;;;;;;;24.95;4.05;;;;;;;6.45;100.00;102364.84;4992211;28;20410;-75
2021/11/09 00:12:50;;;;;;;18.65;3.63;;;;;;;6.46;100.00;102363.94;5010095;28;20140;-75
2021/11/09 00:15:19;;;;;;;18.35;3.10;;;;;;;6.46;100.00;102363.94;5027411;28;20037;-74
2021/11/09 00:17:47;;;;;;;26.40;3.47;;;;;;;6.46;100.00;102358.72;5008509;28;20037;-76
2021/11/09 00:20:16;;;;;;;19.58;3.78;;;;;;;6.47;100.00;102354.34;5017746;28;20038;-75
2021/11/09 00:22:42;;;;;;;29.35;4.15;;;;;;;6.50;100.00;102355.03;5011490;28;20142;-74
2021/11/09 00:25:10;;;;;;;16.70;3.35;;;;;;;6.51;100.00;102353.25;5006107;28;20037;-75
2021/11/09 00:27:36;;;;;;;25.98;4.22;;;;;;;6.49;100.00;102350.72;5024211;28;20614;-74
2021/11/09 00:30:03;;;;;;;15.88;3.22;;;;;;;6.47;100.00;102360.38;5009003;28;20025;-75
2021/11/09 00:32:29;;;;;;;21.45;3.80;;;;;;;6.49;100.00;102353.31;5019546;28;20457;-74
2021/11/09 00:34:55;;;;;;;13.57;3.00;;;;;;;6.51;100.00;102356.69;5016065;28;20041;-77
2021/11/09 00:37:21;;;;;;;10.18;2.97;;;;;;;6.52;100.00;102353.16;5027609;28;20029;-77
2021/11/09 00:39:46;;;;;;;17.48;3.17;;;;;;;6.55;100.00;102357.38;5011640;28;20257;-74
2021/11/09 00:42:14;;;;;;;19.02;3.20;;;;;;;6.55;100.00;102359.97;5012373;28;20111;-74
2021/11/09 00:44:40;;;;;;;18.83;3.30;;;;;;;6.54;100.00;102359.16;5025491;28;20036;-75
2021/11/09 00:47:07;;;;;;;28.42;3.65;;;;;;;6.54;100.00;102366.13;5009605;28;20037;-74
2021/11/09 00:49:34;;;;;;;14.48;3.13;;;;;;;6.51;100.00;102359.28;5016104;28;20033;-77
2021/11/09 00:52:01;;;;;;;12.68;3.58;;;;;;;6.54;100.00;102356.53;5011085;28;20614;-74
2021/11/09 00:54:28;;;;;;;15.43;3.35;;;;;;;6.53;100.00;102359.22;4996156;28;20037;-74
2021/11/09 00:56:54;;;;;;;17.63;3.40;;;;;;;6.50;100.00;102352.41;4992722;28;20033;-76
2021/11/09 00:59:20;;;;;;;13.68;2.88;;;;;;;6.47;100.00;102351.72;5027798;28;20029;-74
2021/11/09 01:01:46;;;;;;;17.42;3.85;;;;;;;6.44;100.00;102350.09;5020196;28;20706;-74
2021/11/09 01:04:11;;;;;;;16.65;3.10;;;;;;;6.45;100.00;102345.75;5009667;28;20145;-74
2021/11/09 01:06:37;;;;;;;21.50;3.40;;;;;;;6.42;100.00;102341.53;5027334;28;20144;-74
2021/11/09 01:09:05;;;;;;;15.77;3.50;;;;;;;6.37;100.00;102340.94;5005778;28;20045;-76
2021/11/09 01:11:31;;;;;;;20.13;3.85;;;;;;;6.31;100.00;102329.06;5009873;28;20064;-76
2021/11/09 01:13:58;;;;;;;19.52;3.72;;;;;;;6.33;100.00;102329.84;5011577;28;20518;-74
2021/11/09 01:16:24;;;;;;;19.10;3.47;;;;;;;6.33;100.00;102329.84;5009584;28;20041;-74
2021/11/09 01:18:53;;;;;;;19.65;4.03;;;;;;;6.37;100.00;102333.13;4993797;28;20129;-75
2021/11/09 01:21:19;;;;;;;18.20;3.67;;;;;;;6.36;100.00;102340.09;5008798;28;20033;-73
2021/11/09 01:23:49;;;;;;;26.60;4.60;;;;;;;6.37;100.00;102333.97;5012701;28;20077;-76
2021/11/09 01:26:16;;;;;;;13.45;3.80;;;;;;;6.33;100.00;102334.19;5012937;28;20061;-73
2021/11/09 01:28:43;;;;;;;21.98;3.92;;;;;;;6.31;100.00;102328.22;5012035;28;20713;-76
2021/11/09 01:31:09;;;;;;;17.27;3.88;;;;;;;6.29;100.00;102336.13;5011564;28;20037;-74
2021/11/09 01:33:35;;;;;;;16.20;3.78;;;;;;;6.26;100.00;102333.69;4986145;28;20095;-75
2021/11/09 01:36:01;;;;;;;15.27;3.63;;;;;;;6.20;100.00;102336.59;5005600;28;20042;-75
2021/11/09 01:38:27;;;;;;;16.05;3.67;;;;;;;6.17;100.00;102344.56;4975628;28;20045;-75
2021/11/09 01:40:54;;;;;;;16.52;3.15;;;;;;;6.09;100.00;102339.75;4991177;28;20036;-76
2021/11/09 01:43:22;;;;;;;16.35;3.88;;;;;;;6.12;100.00;102341.34;5004766;28;20037;-76
2021/11/09 01:45:48;;;;;;;15.30;3.17;;;;;;;6.09;100.00;102346.75;5020516;28;20033;-76
2021/11/09 01:48:15;;;;;;;18.33;3.80;;;;;;;6.07;100.00;102357.22;5010478;28;21734;-75
2021/11/09 01:50:45;;;;;;;16.92;3.30;;;;;;;6.08;100.00;102358.06;4995608;28;20033;-74
2021/11/09 01:53:11;;;;;;;19.42;4.13;;;;;;;6.10;100.00;102356.22;5003364;28;20059;-74
2021/11/09 01:55:38;;;;;;;23.02;3.95;;;;;;;6.11;100.00;102358.75;5006973;28;20414;-75
2021/11/09 01:58:06;;;;;;;17.65;3.50;;;;;;;6.13;100.00;102356.06;5019606;28;20034;-75
2021/11/09 02:00:40;;;;;;;14.52;3.58;;;;;;;6.15;100.00;102354.22;4991892;28;20081;-75
2021/11/09 02:03:06;;;;;;;17.60;3.60;;;;;;;6.16;100.00;102361.09;4992369;28;20148;-76
2021/11/09 02:05:31;;;;;;;16.20;3.28;;;;;;;6.14;100.00;102349.94;5021536;28;20105;-75
2021/11/09 02:08:00;;;;;;;14.98;3.50;;;;;;;6.13;100.00;102356.91;5018407;28;20041;-74
2021/11/09 02:10:30;;;;;;;14.27;3.10;;;;;;;6.10;100.00;102346.63;5003475;28;20037;-76
2021/11/09 02:12:57;;;;;;;13.52;3.45;;;;;;;6.12;100.00;102354.38;4990289;28;20502;-73
2021/11/09 02:15:23;;;;;;;17.23;3.58;;;;;;;6.13;100.00;102348.25;5011389;28;20443;-74
2021/11/09 02:17:50;;;;;;;20.30;4.50;;;;;;;6.17;100.00;102349.78;4999214;28;20438;-76
2021/11/09 02:20:19;;;;;;;14.27;4.07;;;;;;;6.17;100.00;102353.22;5026327;28;20044;-75
2021/11/09 02:22:45;;;;;;;18.45;4.57;;;;;;;6.17;100.00;102365.41;5027017;28;20033;-74
2021/11/09 02:25:15;;;;;;;24.83;5.00;;;;;;;6.12;100.00;102364.78;5008572;28;20111;-74
2021/11/09 02:27:41;;;;;;;12.38;4.57;;;;;;;6.09;100.00;102364.97;4994396;28;20751;-76
2021/11/09 02:30:09;;;;;;;21.95;4.50;;;;;;;6.08;100.00;102364.09;5008736;28;20469;-75
2021/11/09 02:32:36;;;;;;;22.98;5.22;;;;;;;6.08;100.00;102366.72;5026980;28;20511;-73
2021/11/09 02:35:02;;;;;;;19.85;4.72;;;;;;;6.08;100.00;102358.91;5011758;28;20075;-71
2021/11/09 02:37:29;;;;;;;21.15;4.47;;;;;;;6.06;100.00;102355.53;4991172;28;20143;-73
2021/11/09 02:39:55;;;;;;;19.70;5.13;;;;;;;6.07;100.00;102361.59;5007715;28;20037;-72
2021/11/09 02:42:21;;;;;;;23.65;4.90;;;;;;;6.14;100.00;102368.16;4992487;28;20045;-73
2021/11/09 02:45:04;;;;;;;21.08;4.50;;;;;;;6.16;100.00;102366.31;5011569;28;20395;-73
2021/11/09 02:47:32;;;;;;;31.60;5.28;;;;;;;6.17;100.00;102366.25;5000976;28;20794;-74
2021/11/09 02:50:02;;;;;;;19.65;4.57;;;;;;;6.21;100.00;102370.38;5007270;28;20442;-75
2021/11/09 02:52:30;;;;;;;18.08;4.57;;;;;;;6.18;100.00;102377.53;5005958;28;20033;-75
2021/11/09 02:55:07;;;;;;;15.38;4.20;;;;;;;6.17;100.00;102383.66;4979604;28;20119;-76
2021/11/09 02:57:59;;;;;;;20.63;4.22;;;;;;;6.14;100.00;102375.97;5015915;28;20042;-76
2021/11/09 03:00:35;;;;;;;12.73;4.28;;;;;;;6.15;100.00;102380.28;5008525;28;20042;-74
2021/11/09 03:03:06;;;;;;;18.63;4.00;;;;;;;6.18;100.00;102387.97;5026328;28;20508;-74
2021/11/09 03:05:59;;;;;;;16.60;4.25;;;;;;;6.19;100.00;102395.66;5020149;28;20041;-75
2021/11/09 03:08:35;;;;;;;20.35;4.55;;;;;;;6.23;100.00;102405.03;5007936;28;20420;-74
2021/11/09 03:11:02;;;;;;;14.63;4.35;;;;;;;6.22;100.00;102402.50;5008553;28;20030;-74
2021/11/09 03:13:27;;;;;;;16.23;4.18;;;;;;;6.20;100.00;102397.38;5008773;28;20049;-74
2021/11/09 03:15:56;;;;;;;19.75;4.10;;;;;;;6.20;100.00;102399.16;5022207;28;20499;-72
2021/11/09 03:18:25;;;;;;;18.15;4.05;;;;;;;6.18;100.00;102407.03;5024115;28;20125;-75
2021/11/09 03:39:58;;;;;;;16.67;4.07;;;;;;;6.17;100.00;102405.34;5026275;28;20049;-75
2021/11/09 03:45:35;;;;;;;14.98;4.45;;;;;;;6.20;100.00;102420.00;5007133;28;20100;-74
2021/11/09 03:48:13;;;;;;;22.30;4.88;;;;;;;6.18;100.00;102424.44;4999308;28;20531;-75
2021/11/09 03:50:44;;;;;;;19.02;4.82;;;;;;;6.24;100.00;102430.16;5007552;28;20061;-72
2021/11/09 03:53:16;;;;;;;28.38;6.22;;;;;;;6.27;100.00;102416.13;5010077;28;20797;-75
2021/11/09 04:00:48;;;;;;;29.02;6.25;;;;;;;6.31;100.00;102412.47;5027134;28;19917;-73
2021/11/09 04:06:25;;;;;;;26.40;6.40;;;;;;;6.32;100.00;102415.91;5010253;28;20057;-74
2021/11/09 04:14:23;;;;;;;27.42;6.55;;;;;;;6.32;100.00;102413.31;5008798;28;20045;-73
2021/11/09 04:32:44;;;;;;;24.40;6.97;;;;;;;6.41;100.00;102429.31;5008866;28;20135;-72
2021/11/09 04:48:50;;;;;;;24.00;8.57;;;;;;;6.48;100.00;102422.03;4993129;28;20030;-75
2021/11/09 05:09:46;;;;;;;18.50;9.50;;;;;;;6.32;100.00;102447.19;5005690;28;20723;-74
2021/11/09 05:12:13;;;;;;;26.73;10.65;;;;;;;6.22;100.00;102446.81;5006829;28;20029;-75
2021/11/09 05:14:38;;;;;;;34.17;9.70;;;;;;;6.20;100.00;102453.88;5021534;28;20032;-72
2021/11/09 05:17:04;;;;;;;31.70;10.88;;;;;;;6.17;100.00;102454.00;5010291;28;20025;-73
2021/11/09 05:19:30;;;;;;;22.33;10.20;;;;;;;6.16;100.00;102453.16;5008546;28;20034;-75
2021/11/09 05:21:56;;;;;;;27.75;13.82;;;;;;;6.15;100.00;102458.44;5007472;28;20029;-73
2021/11/09 05:24:22;;;;;;;35.97;12.35;;;;;;;6.13;100.00;102448.09;5016498;28;20057;-73
2021/11/09 05:26:47;;;;;;;23.52;11.93;;;;;;;6.09;100.00;102448.34;5025102;28;20033;-73
2021/11/09 05:29:14;;;;;;;24.13;11.98;;;;;;;6.03;100.00;102445.09;5006408;28;20037;-72
2021/11/09 05:31:40;;;;;;;33.63;15.02;;;;;;;6.09;100.00;102443.13;5022688;28;20033;-74
2021/11/09 05:34:10;;;;;;;43.92;20.98;;;;;;;6.12;100.00;102442.97;4978055;28;20037;-75
2021/11/09 05:36:38;;;;;;;47.03;21.88;;;;;;;6.12;100.00;102459.47;5001426;28;20034;-73
2021/11/09 05:39:12;;;;;;;36.80;19.27;;;;;;;6.09;100.00;102453.56;5014920;28;20033;-75
2021/11/09 05:41:39;;;;;;;39.25;20.15;;;;;;;6.02;100.00;102474.66;5000938;28;20092;-73
2021/11/09 05:44:07;;;;;;;41.50;19.42;;;;;;;6.01;100.00;102470.38;5009623;28;20036;-74
2021/11/09 05:46:34;;;;;;;53.38;23.63;;;;;;;6.08;100.00;102477.91;5002420;28;20191;-73
2021/11/09 05:49:01;;;;;;;54.45;24.85;;;;;;;6.15;100.00;102484.50;5008233;28;20041;-71
2021/11/09 05:51:26;;;;;;;60.75;24.92;;;;;;;6.20;100.00;102485.97;5023262;28;20059;-74
2021/11/09 05:53:52;;;;;;;61.35;25.35;;;;;;;6.23;100.00;102479.75;5006196;28;20080;-74
2021/11/09 05:56:17;;;;;;;45.50;21.10;;;;;;;6.25;100.00;102488.34;5011582;28;20581;-76
2021/11/09 05:58:43;;;;;;;37.20;18.05;;;;;;;6.22;100.00;102496.31;5011526;28;20026;-74
2021/11/09 06:01:09;;;;;;;38.72;18.27;;;;;;;6.19;100.00;102496.47;5012136;28;20176;-76
2021/11/09 06:03:35;;;;;;;38.30;18.98;;;;;;;6.20;100.00;102503.38;4984073;28;20056;-76
2021/11/09 06:06:01;;;;;;;52.30;22.42;;;;;;;6.30;100.00;102507.19;5018272;28;20045;-74
2021/11/09 06:08:26;;;;;;;62.05;23.70;;;;;;;6.32;100.00;102509.75;5004066;28;20514;-76
2021/11/09 06:10:52;;;;;;;42.60;21.73;;;;;;;6.36;100.00;102514.72;5015533;28;20029;-74
2021/11/09 06:13:17;;;;;;;46.45;21.85;;;;;;;6.38;100.00;102506.81;5016903;28;20041;-76
2021/11/09 06:15:43;;;;;;;51.85;20.95;;;;;;;6.40;100.00;102507.59;5013039;28;20068;-74
2021/11/09 06:18:09;;;;;;;48.78;19.73;;;;;;;6.36;100.00;102516.47;5013210;28;20037;-76
2021/11/09 06:20:35;;;;;;;48.03;21.15;;;;;;;6.33;100.00;102520.09;4998287;28;20499;-76
2021/11/09 06:23:01;;;;;;;42.38;20.45;;;;;;;6.33;100.00;102522.69;5012412;28;20041;-75
2021/11/09 06:25:26;;;;;;;46.72;21.95;;;;;;;6.40;100.00;102518.88;5010776;28;20557;-74
2021/11/09 06:27:53;;;;;;;47.58;21.75;;;;;;;6.44;100.00;102522.16;5008892;28;20087;-75
2021/11/09 06:30:20;;;;;;;40.00;20.15;;;;;;;6.42;100.00;102529.19;5039982;28;20354;-73
2021/11/09 06:32:46;;;;;;;41.20;20.13;;;;;;;6.42;100.00;102534.41;4997119;28;20037;-75
2021/11/09 06:35:13;;;;;;;39.65;20.15;;;;;;;6.49;100.00;102530.59;5027808;28;20033;-75
2021/11/09 06:37:38;;;;;;;48.65;21.08;;;;;;;6.53;100.00;102531.28;5016001;28;20116;-76
2021/11/09 06:40:06;;;;;;;47.90;20.63;;;;;;;6.58;100.00;102543.19;5028578;28;20039;-75
2021/11/09 06:42:32;;;;;;;39.53;18.05;;;;;;;6.66;100.00;102541.94;5011325;28;20426;-73
2021/11/09 06:44:58;;;;;;;39.80;19.25;;;;;;;6.65;100.00;102535.91;4994572;28;20124;-74
2021/11/09 06:47:23;;;;;;;38.25;18.02;;;;;;;6.69;100.00;102542.66;5007190;28;20629;-75
2021/11/09 06:49:51;;;;;;;36.00;18.55;;;;;;;6.69;100.00;102534.00;5012311;28;20132;-74
2021/11/09 06:52:17;;;;;;;41.58;17.52;;;;;;;6.69;100.00;102536.59;5031561;28;20076;-76
2021/11/09 06:54:43;;;;;;;33.35;16.83;;;;;;;6.70;100.00;102551.31;5014763;28;20049;-75
2021/11/09 06:57:09;;;;;;;36.08;16.88;;;;;;;6.71;100.00;102539.97;5026730;28;20107;-73
2021/11/09 06:59:34;;;;;;;39.47;16.63;;;;;;;6.75;100.00;102544.09;5026861;28;20029;-75
2021/11/09 07:02:00;;;;;;;33.38;16.08;;;;;;;6.78;100.00;102541.31;5011645;28;20561;-75
2021/11/09 07:04:26;;;;;;;32.90;15.30;;;;;;;6.81;100.00;102547.22;5027971;28;20068;-74
2021/11/09 07:06:51;;;;;;;31.42;14.93;;;;;;;6.83;100.00;102536.72;5013828;28;20036;-76
2021/11/09 07:09:18;;;;;;;36.40;15.45;;;;;;;6.86;100.00;102544.41;5009818;28;20247;-74
2021/11/09 07:11:44;;;;;;;33.47;15.38;;;;;;;6.85;100.00;102542.69;5007852;28;20091;-76
2021/11/09 07:14:10;;;;;;;29.63;13.52;;;;;;;6.78;100.00;102539.56;5010224;28;20040;-74
2021/11/09 07:16:36;;;;;;;32.58;14.45;;;;;;;6.69;100.00;102534.81;5011441;28;20068;-75
2021/11/09 07:19:03;;;;;;;30.15;13.77;;;;;;;6.62;100.00;102528.22;4995171;28;20029;-75
2021/11/09 07:21:31;;;;;;;31.33;13.43;;;;;;;6.58;100.00;102537.97;5019230;28;20037;-76
2021/11/09 07:23:56;;;;;;;31.73;13.48;;;;;;;6.62;100.00;102542.09;5001027;28;20540;-76
2021/11/09 07:26:23;;;;;;;29.35;13.38;;;;;;;6.62;100.00;102542.09;5022910;28;20030;-75
2021/11/09 07:28:49;;;;;;;26.85;12.15;;;;;;;6.62;100.00;102549.09;4998587;28;20052;-75
2021/11/09 07:31:16;;;;;;;30.02;13.02;;;;;;;6.60;100.00;102554.38;5027575;28;20041;-75
2021/11/09 07:33:42;;;;;;;35.33;12.00;;;;;;;6.59;100.00;102560.53;4993346;28;20042;-76
2021/11/09 07:36:08;;;;;;;28.50;12.52;;;;;;;6.59;100.00;102557.03;5006620;28;20475;-75
2021/11/09 07:38:35;;;;;;;28.30;11.52;;;;;;;6.59;100.00;102554.44;5011582;28;20042;-75
2021/11/09 07:41:01;;;;;;;25.02;10.80;;;;;;;6.60;100.00;102561.34;5006988;28;20576;-75
2021/11/09 07:43:26;;;;;;;24.13;10.30;;;;;;;6.59;100.00;102557.03;5011485;28;20037;-75
2021/11/09 07:45:52;;;;;;;24.35;10.63;;;;;;;6.68;100.00;102563.56;5007621;28;20053;-76
2021/11/09 07:48:17;;;;;;;24.00;10.52;;;;;;;6.75;100.00;102565.81;5020276;28;20061;-75
2021/11/09 07:50:45;;;;;;;27.77;11.20;;;;;;;6.83;100.00;102574.06;5024481;28;20038;-73
2021/11/09 07:53:16;;;;;;;29.08;11.40;;;;;;;6.88;100.00;102570.41;5003850;28;20053;-75
2021/11/09 07:56:32;;;;;;;29.67;10.45;;;;;;;7.00;100.00;102573.22;5007546;28;20529;-74
2021/11/09 08:01:15;;;;;;;23.42;9.70;;;;;;;7.15;100.00;102573.38;4995037;28;20507;-73
2021/11/09 08:06:32;;;;;;;20.35;8.55;;;;;;;7.28;100.00;102576.19;5010401;28;20041;-75
2021/11/09 08:09:08;;;;;;;22.10;8.70;;;;;;;7.40;100.00;102580.75;5024596;28;20041;-74
2021/11/09 08:11:36;;;;;;;17.15;7.88;;;;;;;7.42;100.00;102578.91;5019938;28;20062;-74
2021/11/09 08:14:02;;;;;;;15.27;7.28;;;;;;;7.50;100.00;102583.75;5022715;28;20403;-74
2021/11/09 08:16:28;;;;;;;17.35;8.48;;;;;;;7.51;100.00;102578.41;5027929;28;20510;-74
2021/11/09 08:18:54;;;;;;;18.77;7.40;;;;;;;7.58;100.00;102577.16;5023465;28;20033;-75
2021/11/09 08:21:19;;;;;;;15.65;7.38;;;;;;;7.66;100.00;102583.75;4990265;28;20025;-74
2021/11/09 08:23:49;;;;;;;18.52;7.60;;;;;;;7.68;100.00;102581.91;5013187;28;20099;-74
2021/11/09 08:26:21;;;;;;;18.17;7.53;;;;;;;7.76;100.00;102582.31;5023074;28;20175;-75
2021/11/09 08:28:47;;;;;;;19.95;7.60;;;;;;;7.78;100.00;102588.34;4997621;28;20041;-75
2021/11/09 08:31:16;;;;;;;19.40;7.45;;;;;;;7.86;100.00;102599.19;5014201;28;20030;-74
2021/11/09 08:33:42;;;;;;;15.18;7.30;;;;;;;7.88;100.00;102591.28;5006566;28;20041;-74
2021/11/09 08:36:10;;;;;;;16.58;7.75;;;;;;;7.91;100.00;102602.41;5023602;28;20106;-74
2021/11/09 08:38:37;;;;;;;19.02;6.97;;;;;;;7.98;100.00;102598.50;5004722;28;20115;-76
2021/11/09 08:41:03;;;;;;;17.98;7.78;;;;;;;8.04;100.00;102597.34;5028752;28;20037;-74
2021/11/09 08:43:35;;;;;;;17.50;7.15;;;;;;;8.10;100.00;102607.47;5009125;28;20048;-74
2021/11/09 08:46:24;;;;;;;14.35;7.00;;;;;;;8.13;100.00;102606.44;5010809;28;20044;-77
2021/11/09 08:48:50;;;;;;;17.20;7.38;;;;;;;8.11;100.00;102608.31;5004916;28;20183;-75
2021/11/09 08:51:16;;;;;;;15.18;6.75;;;;;;;8.12;100.00;102607.38;5005785;28;20033;-74
2021/11/09 08:53:50;;;;;;;17.52;8.00;;;;;;;8.22;100.00;102611.16;4987268;28;20038;-74
2021/11/09 09:04:19;;;;;;;19.73;8.43;;;;;;;8.55;100.00;102607.59;5025500;28;20095;-74
2021/11/09 09:06:52;;;;;;;22.08;9.90;;;;;;;8.58;100.00;102616.13;5005579;28;20048;-74
2021/11/09 09:09:18;;;;;;;;;;;;;;;8.61;100.00;102612.50;4994452;28;20041;-77
2021/11/09 09:11:48;;;;;;;27.20;9.88;;;;;;;8.62;100.00;102616.78;4991566;28;19914;-75
2021/11/09 09:14:14;;;;;;;28.85;11.32;;;;;;;8.61;100.00;102616.88;5008160;28;20032;-74
2021/11/09 09:16:45;;;;;;;24.98;11.38;;;;;;;8.61;100.00;102619.47;5025350;28;20112;-74
2021/11/09 09:19:14;;;;;;;29.50;11.85;;;;;;;8.60;100.00;102623.88;4997079;28;20045;-74
2021/11/09 09:21:54;;;;;;;31.50;13.05;;;;;;;8.75;100.00;102630.84;4992139;28;20506;-74
2021/11/09 09:24:37;;;;;;;37.20;16.10;;;;;;;8.82;100.00;102627.91;5012461;28;20041;-73
2021/11/09 09:56:52;;;;;;;32.90;14.77;;;;;;;9.30;100.00;102633.78;5009739;28;20033;-75
2021/11/09 09:59:38;;;;;;;;;;;;;;;9.37;100.00;102637.72;5011260;28;20465;-75
2021/11/09 10:02:24;;;;;;;31.77;14.10;;;;;;;9.48;100.00;102627.44;5007793;28;19918;-75
2021/11/09 10:04:51;;;;;;;42.10;14.82;;;;;;;9.51;100.00;102635.13;5008548;28;20045;-74
2021/11/09 10:07:33;;;;;;;38.47;15.88;;;;;;;9.60;100.00;102627.63;5008306;28;20084;-75
2021/11/09 10:10:01;;;;;;;40.27;14.60;;;;;;;9.59;100.00;102628.53;4987573;28;20073;-75
2021/11/09 10:12:35;;;;;;;37.22;14.98;;;;;;;9.63;100.00;102628.28;5020245;28;20048;-74
2021/11/09 10:15:06;;;;;;;36.95;15.15;;;;;;;9.78;100.00;102625.66;5003185;28;20048;-77
2021/11/09 10:17:33;;;;;;;33.95;13.07;;;;;;;9.81;100.00;102620.22;5004067;28;20062;-75
2021/11/09 10:20:19;;;;;;;43.20;14.82;;;;;;;9.79;100.00;102624.72;5026330;28;20478;-75
2021/11/09 10:22:58;;;;;;;33.33;13.88;;;;;;;9.80;100.00;102627.25;5033213;28;20203;-76
2021/11/09 10:25:26;;;;;;;36.75;14.23;;;;;;;9.95;100.00;102625.44;5010320;28;20515;-76
2021/11/09 10:27:57;;;;;;;38.05;13.65;;;;;;;9.98;100.00;102624.41;4990266;28;20049;-75
2021/11/09 10:30:31;;;;;;;39.13;13.55;;;;;;;10.10;100.00;102621.84;4997721;28;20030;-75
2021/11/09 10:32:57;;;;;;;34.50;11.73;;;;;;;10.03;100.00;102617.94;5009858;28;20052;-76
2021/11/09 10:35:23;;;;;;;36.80;12.23;;;;;;;9.98;99.03;102621.78;4996156;28;20498;-75
2021/11/09 10:37:52;;;;;;;37.53;11.50;;;;;;;9.99;98.59;102619.06;5024103;28;20155;-75
2021/11/09 10:40:49;;;;;;;31.98;10.35;;;;;;;10.02;95.36;102620.63;5000343;28;20073;-75
2021/11/09 10:43:17;;;;;;;27.65;11.73;;;;;;;9.98;98.39;102617.38;4994087;28;20166;-75
2021/11/09 10:45:43;;;;;;;34.17;10.73;;;;;;;10.05;98.25;102620.44;5025953;28;20045;-76
2021/11/09 10:48:12;;;;;;;32.20;11.15;;;;;;;10.18;97.45;102620.53;5012347;28;20091;-75
2021/11/09 10:50:46;;;;;;;32.55;10.48;;;;;;;10.20;96.06;102610.78;5030458;28;20048;-77
2021/11/09 10:53:19;;;;;;;30.20;10.02;;;;;;;10.27;95.96;102606.81;5015053;28;20044;-76
2021/11/09 11:03:51;;;;;;;29.33;9.02;;;;;;;10.42;93.86;102605.03;5008591;28;20033;-76
2021/11/09 11:06:21;;;;;;;27.27;9.75;;;;;;;10.45;93.71;102612.69;5025084;28;20510;-76
2021/11/09 11:09:08;;;;;;;21.90;8.63;;;;;;;10.52;93.63;102599.06;5025645;28;20030;-75
2021/11/09 11:11:38;;;;;;;24.33;8.50;;;;;;;10.59;93.93;102598.66;4996892;28;20496;-75
2021/11/09 11:14:10;;;;;;;28.17;8.82;;;;;;;10.54;91.92;102606.81;5008721;28;20064;-76
2021/11/09 11:16:45;;;;;;;23.52;7.93;;;;;;;10.55;93.22;102603.28;5006455;28;20045;-75
2021/11/09 11:19:13;;;;;;;21.70;7.72;;;;;;;10.55;89.37;102597.16;5005701;28;20479;-75
2021/11/09 11:21:39;;;;;;;28.70;7.95;;;;;;;10.56;91.56;102596.25;5020533;28;20072;-75
2021/11/09 11:24:06;;;;;;;24.88;7.68;;;;;;;10.56;90.55;102604.94;5029730;28;20395;-75
2021/11/09 11:26:32;;;;;;;24.08;7.63;;;;;;;10.64;88.39;102597.44;5021686;28;20038;-75
2021/11/09 11:28:58;;;;;;;29.85;7.30;;;;;;;10.70;88.01;102597.00;5006707;28;20110;-76
2021/11/09 11:31:26;;;;;;;25.10;7.30;;;;;;;10.72;88.35;102596.91;5005785;28;20077;-75
2021/11/09 11:33:52;;;;;;;28.75;7.00;;;;;;;10.77;90.07;102600.06;5025433;28;20060;-77
2021/11/09 11:36:18;;;;;;;22.95;7.35;;;;;;;10.88;89.95;102602.81;5029780;28;20122;-75
2021/11/09 11:38:47;;;;;;;21.67;6.50;;;;;;;10.82;83.42;102594.50;4985689;28;20029;-76
2021/11/09 11:41:14;;;;;;;23.83;6.43;;;;;;;10.81;85.17;102585.81;4998587;28;20045;-76
2021/11/09 11:43:42;;;;;;;25.42;6.55;;;;;;;10.77;84.90;102596.59;5027939;28;20033;-76
2021/11/09 11:46:13;;;;;;;22.50;5.57;;;;;;;10.79;86.17;102587.66;5011949;28;20486;-75
2021/11/09 11:49:09;;;;;;;25.92;6.05;;;;;;;10.87;87.10;102585.38;5002837;28;20050;-75
2021/11/09 11:51:44;;;;;;;25.17;6.30;;;;;;;10.96;88.32;102583.91;4982970;28;20133;-77
2021/11/09 11:54:10;;;;;;;19.35;5.80;;;;;;;11.02;83.79;102587.91;4993858;28;20037;-76
2021/11/09 11:56:48;;;;;;;23.00;6.18;;;;;;;11.03;85.09;102572.03;5020570;28;20428;-76
2021/11/09 11:59:23;;;;;;;24.35;5.65;;;;;;;11.04;86.46;102568.47;5004496;28;20044;-75
2021/11/09 12:01:55;;;;;;;22.23;5.45;;;;;;;11.02;82.84;102574.75;5028479;28;20037;-77
2021/11/09 12:04:35;;;;;;;21.88;5.20;;;;;;;11.00;86.36;102564.38;5008951;28;20120;-76
2021/11/09 12:07:06;;;;;;;20.15;5.38;;;;;;;11.03;84.94;102565.97;5025039;28;20077;-76
2021/11/09 12:09:34;;;;;;;23.30;4.95;;;;;;;11.08;82.97;102563.88;4985926;28;20046;-76
2021/11/09 12:12:23;;;;;;;26.38;5.68;;;;;;;11.11;83.75;102571.50;5007985;28;20755;-76
2021/11/09 12:14:56;;;;;;;21.02;4.63;;;;;;;11.06;84.84;102563.97;5020753;28;20045;-76
2021/11/09 12:17:39;;;;;;;22.90;4.93;;;;;;;11.17;83.03;102565.88;5014209;28;20037;-75
2021/11/09 12:20:07;;;;;;;20.92;4.82;;;;;;;11.28;82.89;102562.47;5013777;28;20045;-75
2021/11/09 12:22:48;;;;;;;17.77;4.53;;;;;;;11.48;81.71;102554.03;5013879;28;20192;-75
2021/11/09 12:25:32;;;;;;;15.73;4.55;;;;;;;11.59;83.22;102565.59;4993204;28;20057;-75
2021/11/09 12:27:59;;;;;;;20.15;5.22;;;;;;;11.84;81.19;102556.78;4993776;28;20064;-76
2021/11/09 12:30:32;;;;;;;20.40;4.03;;;;;;;11.90;75.12;102556.38;5013630;28;20047;-76
2021/11/09 12:33:14;;;;;;;21.40;4.82;;;;;;;11.91;75.32;102558.06;5011312;28;20048;-75
2021/11/09 12:35:41;;;;;;;16.95;4.65;;;;;;;12.24;75.99;102564.44;5016469;28;20048;-76
2021/11/09 12:38:09;;;;;;;18.48;4.68;;;;;;;13.10;73.36;102565.03;5016458;28;20030;-76
2021/11/09 12:40:48;;;;;;;15.10;4.13;;;;;;;13.91;68.13;102569.19;5002799;28;20034;-75
2021/11/09 12:43:24;;;;;;;17.83;4.63;;;;;;;14.52;67.12;102573.88;4981081;28;20065;-75
2021/11/09 12:45:52;;;;;;;16.60;4.32;;;;;;;14.88;63.71;102570.94;5005172;28;20095;-75
2021/11/09 12:48:27;;;;;;;18.30;4.72;;;;;;;14.87;62.84;102572.75;5027452;28;20052;-75
2021/11/09 12:50:57;;;;;;;23.45;4.78;;;;;;;15.15;62.13;102565.94;5028223;28;20494;-76
2021/11/09 12:53:24;;;;;;;21.15;4.60;;;;;;;15.35;61.06;102568.66;5008322;28;20065;-77
2021/11/09 12:56:03;;;;;;;14.40;3.90;;;;;;;15.40;64.90;102562.97;5022882;28;20069;-76
2021/11/09 12:58:33;;;;;;;16.77;3.90;;;;;;;15.44;60.04;102559.91;5016057;28;20033;-76
2021/11/09 13:01:16;;;;;;;17.55;4.47;;;;;;;15.41;62.22;102557.56;5020019;28;20083;-77
2021/11/09 13:09:26;;;;;;;17.73;4.57;;;;;;;15.06;58.92;102547.41;5023939;28;20052;-75
2021/11/09 13:12:08;;;;;;;14.80;4.15;;;;;;;14.04;61.94;102550.56;5001868;28;20083;-73
2021/11/09 13:14:47;;;;;;;13.63;4.18;;;;;;;12.71;67.66;102538.97;5021956;28;20441;-75
2021/11/09 13:17:14;;;;;;;19.75;4.13;;;;;;;12.05;71.91;102525.50;5009692;28;20033;-75
2021/11/09 13:19:42;;;;;;;16.95;4.07;;;;;;;11.73;72.59;102525.16;4995706;28;20034;-75
2021/11/09 13:22:17;;;;;;;13.00;4.32;;;;;;;11.64;72.98;102524.91;5018042;28;20037;-75
2021/11/09 13:25:05;;;;;;;17.33;4.22;;;;;;;11.80;70.97;102522.00;5005846;28;20038;-74
2021/11/09 13:27:43;;;;;;;14.52;4.40;;;;;;;12.15;68.78;102523.00;5017955;28;20046;-74
2021/11/09 13:30:13;;;;;;;15.50;3.67;;;;;;;12.18;69.04;102515.72;4980726;28;20131;-76
2021/11/09 13:32:39;;;;;;;20.70;4.88;;;;;;;11.90;69.32;102514.28;5019560;28;20131;-74
2021/11/09 13:35:32;;;;;;;16.45;4.00;;;;;;;11.58;73.56;102524.47;5009370;28;20037;-75
2021/11/09 13:38:09;;;;;;;;;;;;;;;11.37;72.39;102517.16;4990250;28;20064;-75
2021/11/09 13:40:40;;;;;;;13.43;3.70;;;;;;;11.21;72.73;102509.53;5010460;28;19916;-75
2021/11/09 13:43:07;;;;;;;14.90;3.53;;;;;;;11.08;73.87;102506.09;5008388;28;20025;-73
2021/11/09 13:45:34;;;;;;;14.25;3.97;;;;;;;10.97;75.61;102504.19;5009965;28;20041;-75